KHUL/HUL METAR and TAF weather

Enter ICAO airport designator
Station Type Date Time Source
KHUL METAR 2020/10/29 15:53 UTC NOAA

KHUL 291553Z AUTO 26008KT 10SM CLR 07/M02 A2983 RMK AO2 SLP105 T00671022


Station Type Date Time Source
KHUL Decoded METAR 2020/10/29 15:53 UTC NOAA

HOULTON INT'L AIRPORT, ME, United States (KHUL) 46-07N 067-48W 150M
Oct 29, 2020 - 11:53 AM EDT / 2020.10.29 1553 UTC
Wind: from the W (260 degrees) at 9 MPH (8 KT):0
Visibility: 10 mile(s):0
Sky conditions: clear
Temperature: 44.1 F (6.7 C)
Dew Point: 28.0 F (-2.2 C)
Relative Humidity: 52%
Pressure (altimeter): 29.83 in. Hg (1010 hPa)
ob: KHUL 291553Z AUTO 26008KT 10SM CLR 07/M02 A2983 RMK AO2 SLP105 T00671022
cycle: 16

Station Type Date Time Source
KHUL TAF 2020/10/29 15:48 UTC NOAA

TAF
AMD KHUL 291445Z 2915/3012 21005KT P6SM SCT040 OVC060
FM291700 30008G16KT P6SM BKN030
FM291900 33008G16KT P6SM BKN035
FM300000 32005KT P6SM SCT200

Example: see airport list